createdAt,value
2017-10-09T00:01:36.699Z,82.46
2017-10-09T00:04:05.050Z,83.01
2017-10-09T00:06:33.386Z,81.94
2017-10-09T00:09:01.830Z,82.40
2017-10-09T00:11:30.206Z,81.04
2017-10-09T00:13:58.550Z,82.07
2017-10-09T00:16:27.029Z,82.26
2017-10-09T00:18:55.374Z,82.51
2017-10-09T00:21:23.724Z,83.87
2017-10-09T00:23:52.070Z,83.73
2017-10-09T00:26:20.442Z,82.78
2017-10-09T00:28:48.783Z,83.27
2017-10-09T00:31:17.135Z,82.88
2017-10-09T00:33:45.475Z,81.54
2017-10-09T00:36:13.818Z,82.31
2017-10-09T00:38:42.300Z,83.32
2017-10-09T00:41:10.646Z,83.17
2017-10-09T00:43:38.985Z,83.49
2017-10-09T00:46:07.342Z,83.41
2017-10-09T00:48:35.691Z,82.76
2017-10-09T00:51:04.079Z,82.12
2017-10-09T00:53:32.413Z,82.75
2017-10-09T00:56:00.786Z,81.63
2017-10-09T00:58:29.130Z,82.89
2017-10-09T01:00:57.479Z,81.89
2017-10-09T01:03:25.832Z,82.38
2017-10-09T01:05:54.184Z,81.54
2017-10-09T01:08:22.613Z,80.83
2017-10-09T01:10:50.962Z,80.85
2017-10-09T01:13:19.305Z,80.53
2017-10-09T01:15:47.659Z,80.27
2017-10-09T01:18:16.002Z,81.97
2017-10-09T01:20:44.351Z,80.67
2017-10-09T01:23:12.694Z,82.90
2017-10-09T01:25:41.070Z,81.27
2017-10-09T01:28:09.417Z,84.18
2017-10-09T01:30:37.765Z,82.38
2017-10-09T01:33:06.118Z,82.40
2017-10-09T01:35:34.494Z,81.68
2017-10-09T01:38:02.859Z,82.44
2017-10-09T01:40:31.206Z,84.32
2017-10-09T01:42:59.582Z,85.16
2017-10-09T01:45:27.927Z,83.96
2017-10-09T01:47:56.274Z,82.51
2017-10-09T01:50:24.622Z,84.10
2017-10-09T01:52:53.007Z,82.86
2017-10-09T01:55:21.354Z,82.69
2017-10-09T01:57:49.698Z,82.51
2017-10-09T02:00:18.047Z,82.20
2017-10-09T02:02:46.422Z,83.16
2017-10-09T02:05:14.771Z,83.49
2017-10-09T02:07:43.119Z,84.00
2017-10-09T02:10:11.466Z,83.85
2017-10-09T02:12:39.840Z,83.40
2017-10-09T02:15:08.190Z,84.17
2017-10-09T02:17:36.534Z,84.45
2017-10-09T02:20:04.879Z,84.63
2017-10-09T02:22:33.348Z,85.33
2017-10-09T02:25:01.850Z,85.14
2017-10-09T02:27:30.221Z,84.36
2017-10-09T02:29:58.577Z,83.32
2017-10-09T02:32:27.043Z,84.37
2017-10-09T02:34:55.400Z,83.81
2017-10-09T02:37:23.738Z,83.25
2017-10-09T02:39:52.089Z,82.81
2017-10-09T02:42:20.430Z,81.37
2017-10-09T02:44:48.782Z,82.72
2017-10-09T02:47:17.162Z,81.76
2017-10-09T02:49:45.536Z,83.00
2017-10-09T02:52:13.879Z,83.60
2017-10-09T02:54:42.254Z,83.33
2017-10-09T02:57:10.605Z,85.13
2017-10-09T02:59:38.947Z,84.94
2017-10-09T03:02:07.309Z,84.61
2017-10-09T03:04:35.661Z,84.01
2017-10-09T03:07:04.006Z,84.54
2017-10-09T03:09:33.054Z,83.41
2017-10-09T03:12:01.399Z,83.43
2017-10-09T03:14:29.742Z,82.78
2017-10-09T03:16:58.210Z,83.02
2017-10-09T03:19:26.562Z,83.34
2017-10-09T03:21:54.914Z,84.53
2017-10-09T03:24:23.265Z,83.86
2017-10-09T03:26:57.170Z,83.21
2017-10-09T03:29:41.205Z,83.83
2017-10-09T03:32:09.551Z,83.23
2017-10-09T03:34:38.023Z,83.44
2017-10-09T03:37:06.370Z,84.23
2017-10-09T03:39:34.710Z,83.59
2017-10-09T03:42:03.095Z,83.72
2017-10-09T03:44:31.456Z,84.97
2017-10-09T03:46:59.793Z,85.22
2017-10-09T03:49:28.138Z,85.31
2017-10-09T03:51:56.492Z,84.28
2017-10-09T03:54:24.838Z,84.33
2017-10-09T03:56:53.186Z,83.20
2017-10-09T03:59:21.576Z,83.85
2017-10-09T04:01:49.918Z,83.42
2017-10-09T04:04:18.274Z,83.56
2017-10-09T04:06:46.934Z,84.13
2017-10-09T04:09:15.283Z,84.40
2017-10-09T04:11:43.639Z,83.58
2017-10-09T04:14:12.010Z,83.74
2017-10-09T04:16:40.371Z,83.38
2017-10-09T04:19:08.719Z,82.34
2017-10-09T04:21:37.065Z,82.62
2017-10-09T04:24:05.414Z,83.04
2017-10-09T04:26:33.779Z,83.90
2017-10-09T04:29:02.384Z,86.10
2017-10-09T04:31:30.726Z,86.72
2017-10-09T04:33:59.082Z,85.52
2017-10-09T04:36:27.456Z,84.08
2017-10-09T04:38:55.802Z,83.17
2017-10-09T04:41:24.270Z,83.76
2017-10-09T04:43:52.620Z,85.27
2017-10-09T04:46:20.974Z,84.30
2017-10-09T04:48:49.310Z,84.75
2017-10-09T04:51:17.649Z,83.08
2017-10-09T04:53:46.031Z,84.61
2017-10-09T04:56:14.391Z,85.57
2017-10-09T04:58:42.743Z,84.18
2017-10-09T05:01:11.097Z,85.09
2017-10-09T05:03:39.453Z,84.29
2017-10-09T05:06:07.826Z,85.48
2017-10-09T05:08:36.173Z,84.03
2017-10-09T05:11:04.527Z,83.37
2017-10-09T05:13:32.891Z,83.91
2017-10-09T05:16:01.241Z,83.61
2017-10-09T05:18:29.598Z,83.61
2017-10-09T05:20:57.946Z,83.27
2017-10-09T05:23:26.727Z,83.35
2017-10-09T05:25:55.075Z,83.52
2017-10-09T05:28:23.417Z,82.53
2017-10-09T05:30:51.798Z,83.61
2017-10-09T05:33:20.141Z,82.54
2017-10-09T05:35:48.514Z,82.04
2017-10-09T05:38:16.862Z,83.54
2017-10-09T05:40:45.339Z,82.83
2017-10-09T05:43:13.681Z,85.09
2017-10-09T05:45:43.714Z,84.29
2017-10-09T05:48:12.062Z,81.50
2017-10-09T05:50:40.409Z,83.32
2017-10-09T05:53:08.759Z,82.32
2017-10-09T05:55:37.106Z,82.98
2017-10-09T05:58:05.483Z,82.80
2017-10-09T06:00:33.826Z,81.06
2017-10-09T06:03:02.366Z,81.24
2017-10-09T06:05:30.714Z,80.30
2017-10-09T06:07:59.046Z,81.53
2017-10-09T06:10:27.530Z,82.05
2017-10-09T06:12:55.872Z,80.10
2017-10-09T06:15:24.210Z,79.17
2017-10-09T06:17:52.559Z,78.53
2017-10-09T06:20:20.900Z,79.71
2017-10-09T06:22:49.240Z,77.79
2017-10-09T06:25:17.578Z,79.02
2017-10-09T06:27:45.919Z,77.58
2017-10-09T06:30:14.285Z,77.45
2017-10-09T06:32:42.626Z,78.69
2017-10-09T06:35:10.974Z,78.70
2017-10-09T06:37:39.314Z,78.75
2017-10-09T06:40:07.669Z,78.10
2017-10-09T06:42:36.020Z,78.82
2017-10-09T06:45:05.310Z,77.26
2017-10-09T06:47:33.646Z,77.06
2017-10-09T06:50:02.014Z,77.63
2017-10-09T06:52:30.346Z,76.27
2017-10-09T06:54:58.697Z,75.22
2017-10-09T06:57:27.035Z,75.76
2017-10-09T06:59:55.372Z,75.12
2017-10-09T07:02:23.714Z,74.25
2017-10-09T07:04:52.050Z,76.58
2017-10-09T07:07:20.382Z,76.17
2017-10-09T07:09:48.766Z,75.98
2017-10-09T07:12:17.127Z,76.16
2017-10-09T07:14:45.465Z,74.20
2017-10-09T07:17:13.837Z,75.91
2017-10-09T07:19:42.174Z,74.75
2017-10-09T07:22:10.522Z,73.36
2017-10-09T07:24:38.863Z,75.35
2017-10-09T07:27:07.199Z,75.03
2017-10-09T07:29:35.537Z,74.86
2017-10-09T07:32:03.888Z,73.32
2017-10-09T07:34:32.230Z,73.70
2017-10-09T07:37:00.603Z,74.25
2017-10-09T07:39:28.950Z,73.43
2017-10-09T07:41:57.296Z,73.18
2017-10-09T07:44:25.654Z,73.01
2017-10-09T07:46:53.994Z,72.94
2017-10-09T07:49:22.335Z,73.28
2017-10-09T07:51:50.678Z,72.76
2017-10-09T07:54:19.023Z,74.76
2017-10-09T07:56:47.388Z,73.90
2017-10-09T07:59:15.727Z,74.87
2017-10-09T08:01:44.074Z,73.06
2017-10-09T08:04:12.422Z,73.31
2017-10-09T08:06:40.760Z,72.90
2017-10-09T08:09:09.103Z,72.21
2017-10-09T08:11:37.438Z,71.75
2017-10-09T08:14:05.786Z,72.25
2017-10-09T08:16:34.129Z,70.01
2017-10-09T08:19:02.681Z,70.26
2017-10-09T08:21:31.017Z,69.90
2017-10-09T08:23:59.362Z,68.40
2017-10-09T08:26:27.704Z,68.12
2017-10-09T08:28:56.055Z,66.73
2017-10-09T08:31:24.401Z,66.71
2017-10-09T08:33:52.739Z,65.62
2017-10-09T08:36:21.083Z,67.39
2017-10-09T08:38:49.430Z,67.67
2017-10-09T08:41:17.774Z,68.95
2017-10-09T08:43:46.106Z,68.38
2017-10-09T08:46:14.471Z,69.00
2017-10-09T08:48:43.402Z,68.56
2017-10-09T08:51:11.738Z,69.62
2017-10-09T08:53:40.082Z,68.27
2017-10-09T08:56:08.454Z,68.81
2017-10-09T08:58:36.795Z,67.22
2017-10-09T09:01:05.141Z,65.89
2017-10-09T09:03:33.513Z,66.13
2017-10-09T09:06:01.848Z,67.05
2017-10-09T09:08:30.189Z,66.13
2017-10-09T09:10:58.538Z,66.87
2017-10-09T09:13:26.917Z,67.69
2017-10-09T09:15:55.259Z,65.11
2017-10-09T09:18:23.590Z,63.18
2017-10-09T09:20:51.923Z,61.25
2017-10-09T09:23:20.262Z,57.61
2017-10-09T09:25:48.594Z,56.53
2017-10-09T09:28:16.962Z,53.85
2017-10-09T09:30:45.344Z,50.20
2017-10-09T09:33:14.542Z,50.17
2017-10-09T09:35:42.874Z,51.99
2017-10-09T09:38:11.222Z,53.75
2017-10-09T09:40:39.558Z,54.38
2017-10-09T09:43:08.019Z,56.48
2017-10-09T09:45:36.412Z,58.68
2017-10-09T09:48:04.761Z,57.37
2017-10-09T09:50:33.094Z,56.60
2017-10-09T09:53:01.438Z,58.41
2017-10-09T09:55:29.841Z,60.30
2017-10-09T09:57:58.226Z,58.03
2017-10-09T10:00:26.569Z,58.16
2017-10-09T10:02:54.910Z,59.53
2017-10-09T10:05:23.265Z,59.60
2017-10-09T10:07:51.631Z,61.48
2017-10-09T10:10:19.977Z,63.57
2017-10-09T10:12:48.313Z,63.76
2017-10-09T10:15:16.662Z,63.20
2017-10-09T10:17:45.012Z,64.66
2017-10-09T10:20:13.379Z,65.83
2017-10-09T10:22:41.724Z,68.91
2017-10-09T10:25:10.066Z,67.75
2017-10-09T10:27:38.414Z,67.02
2017-10-09T10:30:06.749Z,64.20
2017-10-09T10:32:35.090Z,65.61
2017-10-09T10:35:03.433Z,65.15
2017-10-09T10:37:31.758Z,62.65
2017-10-09T10:40:00.111Z,65.77
2017-10-09T10:42:28.456Z,65.85
2017-10-09T10:44:56.823Z,67.16
2017-10-09T10:47:25.156Z,66.25
2017-10-09T10:49:53.496Z,67.10
2017-10-09T10:52:21.861Z,66.54
2017-10-09T10:54:50.206Z,68.62
2017-10-09T10:57:18.542Z,67.91
2017-10-09T10:59:46.935Z,67.16
2017-10-09T11:02:15.294Z,66.74
2017-10-09T11:04:43.622Z,66.73
2017-10-09T11:07:11.990Z,68.26
2017-10-09T11:09:40.354Z,68.28
2017-10-09T11:12:08.699Z,68.50
2017-10-09T11:14:37.058Z,68.80
2017-10-09T11:17:05.681Z,68.29
2017-10-09T11:19:34.326Z,65.73
2017-10-09T11:22:02.681Z,67.25
2017-10-09T11:24:31.015Z,64.09
2017-10-09T11:26:59.355Z,63.50
2017-10-09T11:29:27.686Z,61.23
2017-10-09T11:31:56.018Z,61.57
2017-10-09T11:34:24.366Z,62.40
2017-10-09T11:36:52.694Z,62.38
2017-10-09T11:39:21.087Z,64.56
2017-10-09T11:41:49.414Z,68.62
2017-10-09T11:44:17.746Z,72.58
2017-10-09T11:46:46.082Z,73.03
2017-10-09T11:49:14.415Z,72.92
2017-10-09T11:51:42.750Z,72.65
2017-10-09T11:54:11.082Z,72.81
2017-10-09T11:56:39.631Z,75.39
2017-10-09T11:59:08.001Z,75.94
2017-10-09T12:01:36.346Z,76.30
2017-10-09T12:04:04.678Z,77.24
2017-10-09T12:06:33.019Z,76.90
2017-10-09T12:09:01.354Z,79.08
2017-10-09T12:11:29.694Z,76.30
2017-10-09T12:13:58.058Z,76.31
2017-10-09T12:16:26.390Z,78.10
2017-10-09T12:18:54.736Z,77.25
2017-10-09T12:21:23.320Z,74.33
2017-10-09T12:23:51.665Z,71.11
2017-10-09T12:26:20.043Z,71.87
2017-10-09T12:28:48.630Z,73.51
2017-10-09T12:31:16.966Z,72.54
2017-10-09T12:33:45.315Z,73.44
2017-10-09T12:36:13.661Z,74.73
2017-10-09T12:38:41.992Z,74.05
2017-10-09T12:41:10.330Z,76.14
2017-10-09T12:43:38.700Z,76.69
2017-10-09T12:46:07.042Z,76.20
2017-10-09T12:48:35.387Z,76.38
2017-10-09T12:51:03.718Z,75.96
2017-10-09T12:53:32.056Z,75.83
2017-10-09T12:56:00.386Z,75.06
2017-10-09T12:58:28.723Z,75.74
2017-10-09T13:00:57.061Z,75.14
2017-10-09T13:03:25.394Z,74.16
2017-10-09T13:05:53.771Z,74.61
2017-10-09T13:08:22.106Z,75.60
2017-10-09T13:10:50.442Z,76.37
2017-10-09T13:13:18.782Z,78.79
2017-10-09T13:15:47.115Z,78.42
2017-10-09T13:18:15.450Z,78.27
2017-10-09T13:20:43.785Z,78.10
2017-10-09T13:23:12.117Z,78.83
2017-10-09T13:25:40.454Z,80.03
2017-10-09T13:28:08.789Z,79.84
2017-10-09T13:30:38.188Z,78.58
2017-10-09T13:33:06.611Z,78.22
2017-10-09T13:35:35.694Z,78.58
2017-10-09T13:38:04.026Z,78.92
2017-10-09T13:40:32.499Z,76.56
2017-10-09T13:43:01.085Z,78.22
2017-10-09T13:45:29.426Z,79.09
2017-10-09T13:47:57.766Z,78.66
2017-10-09T13:50:26.106Z,79.33
2017-10-09T13:52:54.585Z,79.51
2017-10-09T13:55:22.945Z,81.21
2017-10-09T13:57:51.282Z,80.93
2017-10-09T14:00:19.634Z,82.33
2017-10-09T14:02:47.973Z,82.24
2017-10-09T14:05:16.330Z,81.47
2017-10-09T14:07:44.686Z,82.87
2017-10-09T14:10:13.042Z,83.06
2017-10-09T14:12:41.392Z,82.44
2017-10-09T14:15:09.730Z,81.54
2017-10-09T14:17:38.562Z,81.79
2017-10-09T14:20:07.090Z,81.30
2017-10-09T14:22:35.495Z,81.83
2017-10-09T14:25:03.851Z,80.20
2017-10-09T14:27:32.186Z,80.88
2017-10-09T14:30:00.527Z,79.90
2017-10-09T14:39:54.087Z,80.83
2017-10-09T14:42:22.435Z,80.72
2017-10-09T14:44:50.782Z,80.60
2017-10-09T14:47:19.126Z,82.55
2017-10-09T14:49:47.506Z,80.85
2017-10-09T14:52:15.886Z,82.19
2017-10-09T14:54:44.235Z,82.43
2017-10-09T14:57:12.587Z,81.21
2017-10-09T14:59:40.945Z,82.29
2017-10-09T15:02:09.316Z,82.04
2017-10-09T15:04:37.707Z,81.67
2017-10-09T15:07:06.042Z,81.33
2017-10-09T15:09:34.388Z,79.65
2017-10-09T15:12:02.923Z,79.53
2017-10-09T15:14:31.271Z,78.06
2017-10-09T15:16:59.614Z,79.18
2017-10-09T15:19:27.954Z,79.12
2017-10-09T15:21:56.298Z,79.76
2017-10-09T15:24:24.649Z,78.69
2017-10-09T15:26:52.991Z,79.91
2017-10-09T15:29:21.395Z,80.34
2017-10-09T15:31:49.730Z,80.81
2017-10-09T15:34:18.085Z,81.24
2017-10-09T15:36:46.443Z,80.98
2017-10-09T15:39:14.774Z,81.27
2017-10-09T15:41:43.118Z,81.97
2017-10-09T15:44:11.459Z,83.57
2017-10-09T15:46:39.938Z,82.66
2017-10-09T15:49:08.286Z,82.41
2017-10-09T15:51:36.636Z,82.31
2017-10-09T15:54:04.974Z,81.97
2017-10-09T15:56:33.327Z,82.62
2017-10-09T15:59:01.675Z,81.74
2017-10-09T16:01:30.027Z,81.94
2017-10-09T16:03:58.375Z,82.56
2017-10-09T16:06:26.722Z,81.75
2017-10-09T16:08:55.074Z,82.76
2017-10-09T16:11:23.441Z,83.85
2017-10-09T16:13:51.786Z,83.03
2017-10-09T16:16:20.233Z,84.49
2017-10-09T16:18:48.583Z,82.73
2017-10-09T16:21:16.934Z,82.43
2017-10-09T16:23:45.284Z,82.69
2017-10-09T16:26:13.650Z,83.45
2017-10-09T16:28:42.035Z,83.91
2017-10-09T16:31:10.401Z,82.15
2017-10-09T16:33:38.847Z,83.90
2017-10-09T16:36:07.194Z,85.49
2017-10-09T16:38:35.547Z,85.09
2017-10-09T16:41:03.903Z,83.79
2017-10-09T16:43:32.246Z,83.58
2017-10-09T16:46:00.674Z,84.22
2017-10-09T16:48:29.031Z,86.57
2017-10-09T16:50:57.410Z,84.61
2017-10-09T16:53:25.763Z,86.47
2017-10-09T16:55:54.105Z,86.37
2017-10-09T16:58:22.454Z,86.72
2017-10-09T17:00:50.802Z,86.57
2017-10-09T17:03:19.147Z,85.57
2017-10-09T17:05:47.506Z,84.69
2017-10-09T17:08:15.863Z,84.19
2017-10-09T17:10:44.220Z,85.74
2017-10-09T17:13:12.567Z,86.02
2017-10-09T17:15:40.923Z,86.33
2017-10-09T17:18:09.279Z,85.77
2017-10-09T17:20:37.626Z,84.84
2017-10-09T17:23:05.983Z,85.68
2017-10-09T17:25:34.359Z,84.80
2017-10-09T17:28:02.703Z,84.66
2017-10-09T17:30:31.079Z,84.88
2017-10-09T17:32:59.449Z,83.17
2017-10-09T17:35:27.938Z,83.43
2017-10-09T17:37:56.284Z,83.45
2017-10-09T17:40:24.798Z,83.04
2017-10-09T17:42:53.390Z,83.06
2017-10-09T17:45:21.738Z,82.58
2017-10-09T17:47:50.342Z,83.89
2017-10-09T17:50:18.881Z,84.34
2017-10-09T17:52:47.292Z,86.07
2017-10-09T17:55:15.653Z,86.22
2017-10-09T17:57:44.028Z,85.33
2017-10-09T18:00:12.427Z,86.62
2017-10-09T18:02:40.795Z,85.86
2017-10-09T18:05:09.176Z,86.39
2017-10-09T18:07:37.528Z,84.66
2017-10-09T18:10:05.902Z,85.83
2017-10-09T18:12:34.450Z,87.17
2017-10-09T18:15:02.804Z,85.36
2017-10-09T18:17:31.172Z,87.06
2017-10-09T18:19:59.516Z,86.42
2017-10-09T18:22:27.899Z,87.14
2017-10-09T18:24:56.384Z,88.13
2017-10-09T18:27:24.739Z,87.16
2017-10-09T18:29:53.106Z,87.44
2017-10-09T18:32:21.484Z,87.07
2017-10-09T18:34:49.867Z,88.23
2017-10-09T18:37:18.251Z,87.93
2017-10-09T18:39:47.480Z,87.38
2017-10-09T18:42:15.931Z,85.46
2017-10-09T18:44:44.318Z,86.32
2017-10-09T18:47:12.698Z,87.72
2017-10-09T18:49:41.067Z,86.52
2017-10-09T18:52:09.475Z,87.10
2017-10-09T18:54:37.825Z,87.77
2017-10-09T18:57:06.231Z,86.51
2017-10-09T18:59:34.592Z,87.57
2017-10-09T19:02:02.942Z,84.98
2017-10-09T19:04:31.350Z,86.47
2017-10-09T19:06:59.708Z,84.48
2017-10-09T19:09:28.187Z,85.75
2017-10-09T19:11:56.559Z,87.18
2017-10-09T19:14:24.931Z,86.41
2017-10-09T19:16:53.299Z,87.86
2017-10-09T19:19:21.948Z,85.71
2017-10-09T19:21:51.328Z,85.72
2017-10-09T19:24:19.897Z,87.36
2017-10-09T19:26:48.409Z,87.01
2017-10-09T19:29:16.756Z,86.71
2017-10-09T19:31:45.102Z,88.87
2017-10-09T19:34:13.467Z,87.32
2017-10-09T19:36:41.816Z,87.00
2017-10-09T19:39:10.187Z,86.54
2017-10-09T19:41:38.665Z,87.18
2017-10-09T19:44:07.009Z,85.89
2017-10-09T19:46:35.414Z,86.77
2017-10-09T19:49:03.768Z,86.83
2017-10-09T19:51:32.238Z,85.99
2017-10-09T19:54:00.588Z,83.88
2017-10-09T19:56:28.935Z,85.63
2017-10-09T19:58:57.314Z,86.61
2017-10-09T20:01:25.668Z,85.88
2017-10-09T20:03:54.030Z,85.84
2017-10-09T20:06:22.382Z,86.74
2017-10-09T20:08:50.763Z,88.01
2017-10-09T20:11:19.134Z,88.49
2017-10-09T20:13:47.481Z,88.17
2017-10-09T20:16:15.966Z,87.56
2017-10-09T20:18:44.327Z,88.61
2017-10-09T20:21:12.667Z,88.92
2017-10-09T20:23:41.030Z,88.08
2017-10-09T20:26:09.374Z,88.35
2017-10-09T20:28:37.746Z,89.57
2017-10-09T20:31:06.201Z,88.55
2017-10-09T20:33:34.551Z,87.29
2017-10-09T20:36:02.929Z,85.95
2017-10-09T20:38:31.278Z,86.20
2017-10-09T20:40:59.655Z,85.22
2017-10-09T20:43:28.015Z,87.31
2017-10-09T20:45:56.391Z,88.66
2017-10-09T20:48:24.763Z,88.48
2017-10-09T20:50:53.246Z,88.56
2017-10-09T20:53:21.622Z,88.82
2017-10-09T20:55:49.998Z,88.13
2017-10-09T20:58:18.377Z,87.82
2017-10-09T21:00:46.723Z,87.84
2017-10-09T21:03:15.099Z,89.13
2017-10-09T21:05:43.478Z,89.68
2017-10-09T21:08:11.824Z,89.78
2017-10-09T21:10:40.198Z,88.86
2017-10-09T21:13:08.576Z,86.83
2017-10-09T21:15:36.927Z,87.51
2017-10-09T21:18:05.274Z,87.35
2017-10-09T21:20:33.635Z,89.85
2017-10-09T21:23:02.018Z,88.84
2017-10-09T21:25:30.383Z,88.84
2017-10-09T21:27:58.750Z,89.84
2017-10-09T21:30:27.111Z,88.92
2017-10-09T21:32:55.494Z,89.79
2017-10-09T21:35:23.847Z,87.79
2017-10-09T21:37:52.331Z,87.28
2017-10-09T21:40:20.674Z,88.01
2017-10-09T21:42:49.051Z,86.15
2017-10-09T21:45:17.426Z,87.67
2017-10-09T21:47:45.783Z,88.15
2017-10-09T21:50:14.168Z,88.37
2017-10-09T21:52:42.523Z,86.63
2017-10-09T21:55:10.881Z,87.93
2017-10-09T21:57:39.229Z,87.48
2017-10-09T22:00:07.608Z,87.30
2017-10-09T22:02:35.964Z,86.79
2017-10-09T22:05:04.443Z,87.59
2017-10-09T22:07:32.790Z,85.45
2017-10-09T22:10:01.142Z,85.32
2017-10-09T22:12:29.521Z,84.56
2017-10-09T22:14:57.873Z,84.80
2017-10-09T22:17:26.243Z,85.20
2017-10-09T22:19:54.591Z,86.38
2017-10-09T22:22:22.965Z,85.86
2017-10-09T22:24:51.343Z,85.46
2017-10-09T22:27:19.729Z,85.40
2017-10-09T22:29:48.076Z,87.56
2017-10-09T22:32:16.428Z,85.36
2017-10-09T22:34:44.779Z,88.85
2017-10-09T22:37:13.128Z,88.11
2017-10-09T22:39:41.503Z,89.68
2017-10-09T22:42:09.873Z,89.87
2017-10-09T22:44:38.223Z,90.60
2017-10-09T22:47:07.461Z,87.46
2017-10-09T22:49:35.803Z,86.87
2017-10-09T22:52:04.284Z,85.53
2017-10-09T22:54:41.478Z,87.42
2017-10-09T22:57:09.858Z,88.06
2017-10-09T22:59:38.210Z,86.60
2017-10-09T23:02:06.596Z,84.93
2017-10-09T23:04:35.096Z,85.97
2017-10-09T23:07:03.540Z,86.56
2017-10-09T23:09:31.878Z,88.19
2017-10-09T23:12:00.231Z,86.20
2017-10-09T23:14:28.583Z,87.31
2017-10-09T23:16:56.923Z,86.58
2017-10-09T23:19:25.272Z,86.51
2017-10-09T23:21:53.642Z,86.74
2017-10-09T23:24:22.023Z,87.02
2017-10-09T23:26:50.398Z,88.60
2017-10-09T23:29:18.735Z,87.95
2017-10-09T23:31:47.107Z,87.43
2017-10-09T23:34:15.456Z,87.26
2017-10-09T23:36:43.799Z,86.88
2017-10-09T23:39:12.152Z,88.22
2017-10-09T23:41:40.526Z,87.46
2017-10-09T23:44:08.880Z,85.12
2017-10-09T23:46:37.250Z,85.08
2017-10-09T23:49:05.626Z,85.34
2017-10-09T23:51:33.970Z,85.45
2017-10-09T23:54:02.342Z,85.17
2017-10-09T23:56:30.714Z,86.00
2017-10-09T23:58:59.060Z,87.32
